Time;durP1;ratioP1;P1;durP2;ratioP2;P2;SDS_P1;SDS_P2;PMS_P1;PMS_P2;Temp;Humidity;BMP_temperature;BMP_pressure;BME280_temperature;BME280_humidity;BME280_pressure;Samples;Min_cycle;Max_cycle;Signal;HPM_P1;HPM_P2
2021/01/23 00:00:54;;;;;;;14.03;8.03;;;2.00;99.90;;;;;;5273094;28;20184;-69
2021/01/23 00:03:25;;;;;;;18.17;8.83;;;2.00;99.90;;;;;;5272662;28;20196;-71
2021/01/23 00:05:57;;;;;;;18.33;8.00;;;2.00;99.90;;;;;;5272574;28;20195;-69
2021/01/23 00:08:28;;;;;;;19.80;9.17;;;2.00;99.90;;;;;;5272414;28;20215;-67
2021/01/23 00:10:59;;;;;;;15.70;7.97;;;2.00;99.90;;;;;;5272136;28;20570;-67
2021/01/23 00:13:31;;;;;;;16.33;8.37;;;1.90;99.90;;;;;;5271600;28;20235;-69
2021/01/23 00:16:03;;;;;;;17.43;8.50;;;1.90;99.90;;;;;;5271822;28;20558;-68
2021/01/23 00:18:35;;;;;;;17.20;8.00;;;1.90;99.90;;;;;;5271856;28;20598;-67
2021/01/23 00:21:07;;;;;;;16.97;8.30;;;1.80;99.90;;;;;;5271664;28;20192;-68
2021/01/23 00:23:39;;;;;;;18.00;8.00;;;1.80;99.90;;;;;;5271988;28;20230;-68
2021/01/23 00:26:10;;;;;;;16.67;9.00;;;1.80;99.90;;;;;;5272000;28;20547;-67
2021/01/23 00:28:42;;;;;;;16.37;7.87;;;1.80;99.90;;;;;;5272458;28;20211;-68
2021/01/23 00:31:13;;;;;;;21.53;9.77;;;1.80;99.90;;;;;;5273680;28;20195;-71
2021/01/23 00:33:45;;;;;;;21.10;9.37;;;1.80;99.90;;;;;;5273717;28;20220;-70
2021/01/23 00:36:17;;;;;;;18.30;9.00;;;1.80;99.90;;;;;;5274078;28;20204;-70
2021/01/23 00:38:48;;;;;;;20.13;8.53;;;1.80;99.90;;;;;;5271356;28;20200;-69
2021/01/23 00:41:20;;;;;;;15.73;8.37;;;1.70;99.90;;;;;;5271133;28;20189;-69
2021/01/23 00:43:51;;;;;;;14.50;8.13;;;1.70;99.90;;;;;;5271081;28;20643;-69
2021/01/23 00:46:22;;;;;;;17.10;8.23;;;1.70;99.90;;;;;;5270586;28;20199;-68
2021/01/23 00:48:54;;;;;;;14.50;7.57;;;1.70;99.90;;;;;;5270779;28;20652;-69
2021/01/23 00:51:26;;;;;;;13.30;7.67;;;1.70;99.90;;;;;;5270918;28;20195;-68
2021/01/23 00:53:57;;;;;;;14.30;7.63;;;1.70;99.90;;;;;;5270874;28;20563;-69
2021/01/23 00:56:28;;;;;;;15.17;7.97;;;1.70;99.90;;;;;;5270732;28;20192;-69
2021/01/23 00:59:00;;;;;;;13.47;7.73;;;1.70;99.90;;;;;;5271564;28;20199;-68
2021/01/23 01:01:31;;;;;;;13.43;7.67;;;1.70;99.90;;;;;;5274394;28;20188;-70
2021/01/23 01:04:04;;;;;;;13.40;7.40;;;1.70;99.90;;;;;;5273921;28;20193;-68
2021/01/23 01:06:35;;;;;;;13.67;7.70;;;1.60;99.90;;;;;;5271240;28;20196;-71
2021/01/23 01:09:08;;;;;;;13.67;7.73;;;1.60;99.90;;;;;;5252278;28;20230;-67
2021/01/23 01:11:39;;;;;;;14.47;7.90;;;1.60;99.90;;;;;;5252220;28;20196;-69
2021/01/23 01:14:11;;;;;;;13.13;7.60;;;1.60;99.90;;;;;;5270810;28;20236;-70
2021/01/23 01:21:05;;;;;;;15.50;7.90;;;1.60;99.90;;;;;;5272378;28;20179;-68
2021/01/23 01:23:38;;;;;;;15.97;7.93;;;1.60;99.90;;;;;;5270201;28;20188;-69
2021/01/23 01:26:10;;;;;;;17.97;8.97;;;1.60;99.90;;;;;;5270884;28;20196;-68
2021/01/23 01:28:41;;;;;;;15.23;8.20;;;1.50;99.90;;;;;;5270839;28;20208;-68
2021/01/23 01:31:13;;;;;;;14.63;8.43;;;1.50;99.90;;;;;;5270274;28;20188;-69
2021/01/23 01:37:40;;;;;;;15.77;8.27;;;1.40;99.90;;;;;;5270005;28;20172;-69
2021/01/23 01:40:13;;;;;;;17.93;8.37;;;1.40;99.90;;;;;;5269761;28;20207;-69
2021/01/23 01:42:45;;;;;;;16.87;8.67;;;1.40;99.90;;;;;;5269860;28;20196;-68
2021/01/23 01:45:16;;;;;;;14.90;7.70;;;1.40;99.90;;;;;;5269933;28;20519;-68
2021/01/23 01:47:48;;;;;;;17.80;8.00;;;1.30;99.90;;;;;;5270132;28;20188;-71
2021/01/23 01:50:20;;;;;;;16.97;7.87;;;1.30;99.90;;;;;;5269981;28;20203;-72
2021/01/23 01:52:52;;;;;;;16.50;8.17;;;1.30;99.90;;;;;;5269842;28;20273;-67
2021/01/23 01:55:31;;;;;;;17.53;8.80;;;1.30;99.90;;;;;;5269896;28;20539;-69
2021/01/23 01:58:03;;;;;;;13.20;8.37;;;1.40;99.90;;;;;;5251630;28;20199;-69
2021/01/23 02:00:35;;;;;;;18.47;8.70;;;1.40;99.90;;;;;;5269652;28;20784;-68
2021/01/23 02:03:50;;;;;;;16.33;9.13;;;1.40;99.90;;;;;;5269719;28;20562;-68
2021/01/23 02:06:40;;;;;;;16.87;8.97;;;1.40;99.90;;;;;;5269458;28;20200;-70
2021/01/23 02:09:31;;;;;;;17.50;9.20;;;1.50;99.90;;;;;;5269642;28;20526;-68
2021/01/23 02:12:17;;;;;;;18.30;9.57;;;1.50;99.90;;;;;;5269441;28;20747;-68
2021/01/23 02:15:08;;;;;;;18.40;9.03;;;1.50;99.90;;;;;;5251659;28;20227;-69
2021/01/23 02:21:45;;;;;;;17.87;9.50;;;1.60;99.90;;;;;;5270180;28;20191;-67
2021/01/23 02:24:23;;;;;;;15.50;8.40;;;1.50;99.90;;;;;;5269544;28;20196;-67
2021/01/23 02:26:57;;;;;;;21.03;9.33;;;1.50;99.90;;;;;;5269380;28;20545;-70
2021/01/23 02:29:48;;;;;;;19.23;9.03;;;1.50;99.90;;;;;;5269523;28;20558;-69
2021/01/23 02:32:21;;;;;;;18.10;9.27;;;1.40;99.90;;;;;;5269089;28;20296;-69
2021/01/23 02:34:54;;;;;;;15.00;8.33;;;1.40;99.90;;;;;;5269201;28;20202;-66
2021/01/23 02:37:28;;;;;;;16.27;8.87;;;1.30;99.90;;;;;;5269041;28;20207;-65
2021/01/23 02:40:01;;;;;;;16.60;8.63;;;1.30;99.90;;;;;;5250918;28;20200;-70
2021/01/23 02:42:33;;;;;;;19.00;8.80;;;1.30;99.90;;;;;;5251195;28;20250;-69
2021/01/23 02:45:09;;;;;;;20.20;10.27;;;1.20;99.90;;;;;;5269123;28;20199;-69
2021/01/23 02:47:41;;;;;;;17.80;9.80;;;1.20;99.90;;;;;;5269328;28;20267;-68
2021/01/23 02:50:13;;;;;;;17.50;9.00;;;1.10;99.90;;;;;;5251892;28;20188;-69
2021/01/23 02:52:59;;;;;;;17.87;8.87;;;1.10;99.90;;;;;;5269260;28;20212;-69
2021/01/23 02:55:33;;;;;;;17.77;9.20;;;1.10;99.90;;;;;;5269625;28;20198;-70
2021/01/23 02:58:08;;;;;;;17.30;8.90;;;1.10;99.90;;;;;;5269997;28;20215;-71
2021/01/23 03:00:42;;;;;;;17.17;9.27;;;1.10;99.90;;;;;;5269623;28;20304;-68
2021/01/23 03:03:16;;;;;;;17.17;9.53;;;1.10;99.90;;;;;;5269088;28;20627;-68
2021/01/23 03:05:49;;;;;;;17.00;9.27;;;1.00;99.90;;;;;;5269077;28;20237;-71
2021/01/23 03:08:21;;;;;;;16.10;8.53;;;1.00;99.90;;;;;;5252828;28;20189;-70
2021/01/23 03:10:52;;;;;;;16.43;9.67;;;1.00;99.90;;;;;;5271014;28;20192;-68
2021/01/23 03:13:24;;;;;;;18.40;9.93;;;0.90;99.90;;;;;;5269750;28;20244;-67
2021/01/23 03:15:55;;;;;;;13.60;8.60;;;0.90;99.90;;;;;;5269167;28;20199;-69
2021/01/23 03:18:27;;;;;;;20.43;10.03;;;0.90;99.90;;;;;;5268682;28;20195;-68
2021/01/23 03:20:58;;;;;;;16.90;9.60;;;0.80;99.90;;;;;;5268698;28;20193;-70
2021/01/23 03:23:30;;;;;;;18.13;9.87;;;0.80;99.90;;;;;;5268853;28;20540;-68
2021/01/23 03:26:02;;;;;;;18.83;9.87;;;0.70;99.90;;;;;;5268799;28;20199;-67
2021/01/23 03:28:34;;;;;;;20.73;9.37;;;0.70;99.90;;;;;;5269053;28;20219;-68
2021/01/23 03:31:07;;;;;;;23.37;10.63;;;0.70;99.90;;;;;;5269993;28;20193;-69
2021/01/23 03:33:38;;;;;;;29.63;12.37;;;0.60;99.90;;;;;;5272202;28;20772;-71
2021/01/23 03:36:10;;;;;;;36.30;13.63;;;0.60;99.90;;;;;;5272560;28;20215;-68
2021/01/23 03:38:41;;;;;;;32.00;14.20;;;0.60;99.90;;;;;;5271877;28;20573;-68
2021/01/23 03:41:13;;;;;;;34.13;14.13;;;0.60;99.90;;;;;;5272387;28;20188;-66
2021/01/23 03:43:45;;;;;;;33.07;14.10;;;0.60;99.90;;;;;;5272095;28;20200;-67
2021/01/23 03:46:16;;;;;;;32.23;13.93;;;0.60;99.90;;;;;;5272162;28;20185;-68
2021/01/23 03:48:49;;;;;;;27.70;12.70;;;0.60;99.90;;;;;;5272133;28;20287;-68
2021/01/23 03:51:20;;;;;;;34.23;13.50;;;0.60;99.90;;;;;;5273530;28;20258;-66
2021/01/23 03:53:52;;;;;;;27.97;13.27;;;0.50;99.90;;;;;;5273516;28;20216;-67
2021/01/23 03:56:23;;;;;;;29.00;13.63;;;0.50;99.90;;;;;;5273673;28;20196;-67
2021/01/23 03:58:54;;;;;;;26.77;12.47;;;0.50;99.90;;;;;;5273182;28;20192;-68
2021/01/23 04:01:26;;;;;;;23.07;11.93;;;0.50;99.90;;;;;;5254538;28;20195;-66
2021/01/23 04:03:58;;;;;;;28.27;12.27;;;0.50;99.90;;;;;;5272016;28;20610;-68
2021/01/23 04:06:29;;;;;;;27.43;12.73;;;0.50;99.90;;;;;;5274063;28;20196;-67
2021/01/23 04:09:01;;;;;;;28.27;12.40;;;0.50;99.90;;;;;;5273698;28;20653;-67
2021/01/23 04:11:32;;;;;;;26.63;13.40;;;0.50;99.90;;;;;;5273583;28;20192;-69
2021/01/23 04:14:04;;;;;;;25.50;13.27;;;0.50;99.90;;;;;;5253902;28;20244;-68
2021/01/23 04:16:35;;;;;;;27.03;13.80;;;0.50;99.90;;;;;;5271978;28;20192;-67
2021/01/23 04:19:07;;;;;;;22.43;12.67;;;0.50;99.90;;;;;;5271483;28;20707;-67
2021/01/23 04:21:38;;;;;;;26.23;13.43;;;0.50;99.90;;;;;;5253862;28;20219;-67
2021/01/23 04:24:10;;;;;;;23.63;12.30;;;0.50;99.90;;;;;;5271375;28;20196;-69
2021/01/23 04:26:43;;;;;;;23.33;12.33;;;0.50;99.90;;;;;;5271385;28;20231;-66
2021/01/23 04:29:14;;;;;;;24.20;12.70;;;0.50;99.90;;;;;;5271482;28;20199;-68
2021/01/23 04:31:46;;;;;;;24.40;13.37;;;0.50;99.90;;;;;;5271195;28;20203;-68
2021/01/23 04:34:18;;;;;;;26.83;13.13;;;0.50;99.90;;;;;;5271601;28;20647;-67
2021/01/23 04:36:49;;;;;;;26.53;13.47;;;0.60;99.90;;;;;;5254377;28;20283;-69
2021/01/23 04:39:21;;;;;;;25.50;12.93;;;0.60;99.90;;;;;;5271699;28;20551;-68
2021/01/23 04:41:52;;;;;;;25.83;12.83;;;0.60;99.90;;;;;;5271195;28;20551;-69
2021/01/23 04:44:24;;;;;;;26.47;12.67;;;0.60;99.90;;;;;;5270568;28;20193;-68
2021/01/23 04:46:56;;;;;;;20.97;12.03;;;0.60;99.90;;;;;;5271258;28;20192;-68
2021/01/23 04:49:29;;;;;;;20.00;11.67;;;0.60;99.90;;;;;;5271284;28;20288;-66
2021/01/23 04:52:04;;;;;;;19.50;11.50;;;0.60;99.90;;;;;;5270813;28;20192;-66
2021/01/23 04:54:36;;;;;;;23.77;11.30;;;0.50;99.90;;;;;;5270660;28;20195;-68
2021/01/23 04:57:07;;;;;;;20.43;11.10;;;0.50;99.90;;;;;;5271124;28;20619;-66
2021/01/23 04:59:39;;;;;;;22.17;11.93;;;0.50;99.90;;;;;;5270615;28;20204;-68
2021/01/23 05:02:18;;;;;;;26.40;12.70;;;0.40;99.90;;;;;;5271169;28;20557;-68
2021/01/23 05:05:01;;;;;;;21.30;11.50;;;0.40;99.90;;;;;;5270727;28;20200;-68
2021/01/23 05:07:40;;;;;;;20.83;10.23;;;0.40;99.90;;;;;;5271004;28;20680;-67
2021/01/23 05:10:20;;;;;;;20.80;11.27;;;0.40;99.90;;;;;;5270366;28;20192;-67
2021/01/23 05:12:56;;;;;;;20.77;10.10;;;0.40;99.90;;;;;;5270377;28;20236;-68
2021/01/23 05:15:32;;;;;;;24.33;11.73;;;0.40;99.90;;;;;;5271159;28;20200;-67
2021/01/23 05:22:16;;;;;;;17.83;9.63;;;0.40;99.90;;;;;;5270535;28;20225;-68
2021/01/23 05:24:51;;;;;;;19.33;9.53;;;0.40;99.90;;;;;;5268732;28;20219;-69
2021/01/23 05:27:23;;;;;;;21.27;10.60;;;0.50;99.90;;;;;;5275679;28;20184;-71
2021/01/23 05:29:57;;;;;;;25.67;11.20;;;0.60;99.90;;;;;;5274823;28;20228;-65
2021/01/23 05:32:29;;;;;;;22.33;11.10;;;0.60;99.90;;;;;;5270798;28;20216;-66
2021/01/23 05:38:56;;;;;;;19.60;10.60;;;0.70;99.90;;;;;;5270033;28;20225;-67
2021/01/23 05:41:27;;;;;;;18.50;9.83;;;0.70;99.90;;;;;;5270310;28;20199;-66
2021/01/23 05:43:59;;;;;;;17.47;9.63;;;0.70;99.90;;;;;;5270090;28;20196;-67
2021/01/23 05:46:31;;;;;;;21.10;10.70;;;0.70;99.90;;;;;;5270536;28;20571;-67
2021/01/23 05:49:03;;;;;;;19.97;10.67;;;0.70;99.90;;;;;;5268907;28;20263;-66
2021/01/23 05:51:35;;;;;;;21.10;11.37;;;0.70;99.90;;;;;;5269594;28;20192;-65
2021/01/23 05:54:07;;;;;;;19.63;10.70;;;0.80;99.90;;;;;;5269637;28;20220;-69
2021/01/23 05:56:41;;;;;;;20.93;11.27;;;0.80;99.90;;;;;;5251911;28;20199;-66
2021/01/23 05:59:12;;;;;;;20.77;11.10;;;0.80;99.90;;;;;;5269835;28;20196;-66
2021/01/23 06:01:45;;;;;;;17.90;10.50;;;0.80;99.90;;;;;;5251362;28;20283;-65
2021/01/23 06:04:17;;;;;;;19.90;10.73;;;0.80;99.90;;;;;;5269435;28;20220;-65
2021/01/23 06:06:48;;;;;;;22.70;11.00;;;0.80;99.90;;;;;;5269893;28;20192;-68
2021/01/23 06:09:52;;;;;;;26.83;12.67;;;0.90;99.90;;;;;;5269664;28;20231;-65
2021/01/23 06:12:43;;;;;;;24.00;12.03;;;0.90;99.90;;;;;;5204757;28;20241;-65
2021/01/23 06:15:35;;;;;;;29.27;14.00;;;0.90;99.90;;;;;;5204991;28;20202;-65
2021/01/23 06:18:56;;;;;;;38.57;15.13;;;0.90;99.90;;;;;;5204969;28;20187;-66
2021/01/23 06:21:43;;;;;;;29.83;14.70;;;0.90;99.90;;;;;;5205296;28;20214;-65
2021/01/23 06:24:16;;;;;;;27.47;15.17;;;0.90;99.90;;;;;;5206279;28;20558;-66
2021/01/23 06:26:53;;;;;;;33.07;16.70;;;0.90;99.90;;;;;;5206748;28;20195;-66
2021/01/23 06:29:41;;;;;;;34.10;16.83;;;0.80;99.90;;;;;;5206272;28;20202;-65
2021/01/23 06:32:13;;;;;;;28.63;15.93;;;0.90;99.90;;;;;;5205331;28;20191;-65
2021/01/23 06:35:00;;;;;;;27.60;15.30;;;0.90;99.90;;;;;;5205550;28;20206;-65
2021/01/23 06:37:37;;;;;;;30.20;15.80;;;0.90;99.90;;;;;;5204862;28;20213;-67
2021/01/23 06:40:15;;;;;;;37.07;16.73;;;0.90;99.90;;;;;;5204677;28;20198;-65
2021/01/23 06:42:48;;;;;;;49.30;19.30;;;0.90;99.90;;;;;;5204991;28;20194;-65
2021/01/23 06:45:27;;;;;;;53.27;21.87;;;0.90;99.90;;;;;;5204703;28;20201;-67
2021/01/23 06:51:07;;;;;;;50.23;22.30;;;1.00;99.90;;;;;;5269736;28;20222;-66
2021/01/23 06:53:38;;;;;;;52.93;21.80;;;1.00;99.90;;;;;;5270793;28;20228;-70
2021/01/23 06:56:10;;;;;;;50.03;22.27;;;1.00;99.90;;;;;;5271844;28;20200;-67
2021/01/23 06:58:43;;;;;;;51.60;21.77;;;1.00;99.90;;;;;;5271701;28;20672;-66
2021/01/23 07:01:18;;;;;;;52.77;20.63;;;1.00;99.90;;;;;;5271455;28;20222;-67
2021/01/23 07:07:39;;;;;;;41.53;17.40;;;1.10;99.90;;;;;;5274946;28;20584;-68
2021/01/23 07:10:17;;;;;;;38.10;17.00;;;1.10;99.90;;;;;;5274145;28;20191;-69
2021/01/23 07:12:49;;;;;;;37.43;16.33;;;1.20;99.90;;;;;;5273926;28;20238;-68
2021/01/23 07:15:23;;;;;;;33.77;15.87;;;1.20;99.90;;;;;;5273160;28;20212;-68
2021/01/23 07:17:54;;;;;;;39.67;16.13;;;1.20;99.90;;;;;;5274940;28;20199;-67
2021/01/23 07:24:22;;;;;;;57.73;26.23;;;1.30;99.90;;;;;;5272718;28;20254;-67
2021/01/23 07:26:54;;;;;;;71.43;31.20;;;1.40;99.90;;;;;;5273246;28;20195;-68
2021/01/23 07:29:25;;;;;;;72.47;33.77;;;1.40;99.90;;;;;;5274460;28;20203;-69
2021/01/23 07:31:57;;;;;;;70.50;32.47;;;1.30;99.90;;;;;;5275785;28;20196;-68
2021/01/23 07:34:29;;;;;;;66.33;31.03;;;1.30;99.90;;;;;;5275074;28;20230;-70
2021/01/23 07:37:00;;;;;;;66.77;30.23;;;1.30;99.90;;;;;;5276382;28;20188;-72
2021/01/23 07:39:32;;;;;;;59.90;28.73;;;1.30;99.90;;;;;;5276239;28;20208;-68
2021/01/23 07:42:04;;;;;;;62.60;27.47;;;1.30;99.90;;;;;;5276045;28;20196;-69
2021/01/23 07:44:36;;;;;;;59.70;28.53;;;1.30;99.90;;;;;;5276469;28;20199;-66
2021/01/23 07:47:12;;;;;;;66.23;26.53;;;1.30;99.90;;;;;;5274274;28;20523;-66
2021/01/23 07:49:45;;;;;;;54.83;27.47;;;1.30;99.90;;;;;;5272456;28;20192;-71
2021/01/23 07:52:16;;;;;;;59.03;25.97;;;1.30;99.90;;;;;;5254571;28;20204;-70
2021/01/23 07:54:49;;;;;;;61.00;27.80;;;1.40;99.90;;;;;;5272237;28;20192;-67
2021/01/23 07:57:21;;;;;;;57.30;28.40;;;1.40;99.90;;;;;;5271625;28;20191;-70
2021/01/23 07:59:53;;;;;;;56.53;26.43;;;1.50;99.90;;;;;;5272362;28;20192;-71
2021/01/23 08:02:25;;;;;;;58.43;27.50;;;1.50;99.90;;;;;;5253961;28;20604;-70
2021/01/23 08:04:57;;;;;;;61.73;26.80;;;1.50;99.90;;;;;;5271848;28;20639;-67
2021/01/23 08:07:30;;;;;;;49.30;23.90;;;1.60;99.90;;;;;;5271761;28;20219;-69
2021/01/23 08:10:18;;;;;;;37.47;17.63;;;1.70;99.90;;;;;;5271298;28;20189;-69
2021/01/23 08:13:05;;;;;;;34.00;15.90;;;1.70;99.90;;;;;;5271071;28;20240;-69
2021/01/23 08:15:37;;;;;;;41.33;14.40;;;1.80;99.90;;;;;;5271619;28;20193;-68
2021/01/23 08:22:06;;;;;;;30.63;11.67;;;1.90;99.90;;;;;;5271308;28;20176;-72
2021/01/23 08:24:38;;;;;;;23.37;11.47;;;2.00;99.90;;;;;;5271158;28;20192;-71
2021/01/23 08:27:20;;;;;;;24.77;11.83;;;2.10;99.90;;;;;;5271360;28;20215;-72
2021/01/23 08:29:52;;;;;;;21.20;10.93;;;2.20;99.90;;;;;;5271255;28;20227;-73
2021/01/23 08:32:24;;;;;;;20.50;10.50;;;2.20;99.90;;;;;;5271822;28;20645;-70
2021/01/23 08:39:04;;;;;;;29.37;10.80;;;2.30;99.90;;;;;;5271112;28;20176;-71
2021/01/23 08:41:36;;;;;;;42.07;15.53;;;2.40;99.90;;;;;;5270421;28;20192;-70
2021/01/23 08:44:08;;;;;;;50.03;19.93;;;2.50;99.90;;;;;;5269472;28;20200;-73
2021/01/23 08:46:39;;;;;;;61.73;24.23;;;2.60;99.90;;;;;;5251720;28;20185;-74
2021/01/23 08:49:11;;;;;;;50.30;22.93;;;2.60;99.90;;;;;;5270065;28;20246;-76
2021/01/23 08:51:43;;;;;;;48.10;20.33;;;2.70;99.90;;;;;;5270207;28;20200;-77
2021/01/23 08:54:14;;;;;;;35.10;16.67;;;2.70;99.90;;;;;;5269626;28;20216;-74
2021/01/23 08:56:46;;;;;;;37.13;15.63;;;2.70;99.90;;;;;;5271563;28;20206;-78
2021/01/23 08:59:17;;;;;;;32.00;14.13;;;2.80;99.90;;;;;;5271498;28;20196;-77
2021/01/23 09:01:49;;;;;;;37.43;14.87;;;2.80;99.90;;;;;;5272569;28;20184;-73
2021/01/23 09:04:21;;;;;;;34.53;16.83;;;2.80;99.90;;;;;;5269896;28;20190;-75
2021/01/23 09:06:52;;;;;;;37.73;18.03;;;2.80;99.90;;;;;;5270308;28;20287;-78
2021/01/23 09:09:24;;;;;;;36.33;17.27;;;2.80;99.90;;;;;;5271041;28;20195;-80
2021/01/23 09:11:56;;;;;;;35.17;17.17;;;2.80;99.90;;;;;;5253351;28;20237;-76
2021/01/23 09:14:27;;;;;;;30.30;15.97;;;2.80;99.90;;;;;;5253186;28;20294;-78
2021/01/23 09:17:02;;;;;;;27.87;14.27;;;2.80;99.90;;;;;;5268968;28;20188;-77
2021/01/23 09:19:34;;;;;;;27.30;13.67;;;2.80;99.90;;;;;;5270818;28;20192;-78
2021/01/23 09:22:06;;;;;;;29.07;12.83;;;2.80;99.90;;;;;;5271664;28;20189;-76
2021/01/23 09:24:37;;;;;;;28.43;12.90;;;2.70;99.90;;;;;;5270962;28;20604;-73
2021/01/23 09:27:12;;;;;;;24.73;11.43;;;2.70;99.90;;;;;;5270743;28;20199;-75
2021/01/23 09:29:44;;;;;;;25.53;11.87;;;2.70;99.90;;;;;;5252278;28;20184;-73
2021/01/23 09:32:17;;;;;;;19.97;12.07;;;2.70;99.90;;;;;;5269832;28;20227;-75
2021/01/23 09:34:50;;;;;;;24.70;13.40;;;2.70;99.90;;;;;;5272095;28;20216;-78
2021/01/23 09:37:24;;;;;;;30.03;13.33;;;2.70;99.90;;;;;;5273822;28;20188;-77
2021/01/23 09:39:57;;;;;;;22.93;12.00;;;2.70;99.90;;;;;;5274852;28;20228;-75
2021/01/23 09:42:28;;;;;;;22.87;11.90;;;2.70;99.90;;;;;;5273206;28;20196;-74
2021/01/23 09:45:00;;;;;;;25.43;12.40;;;2.80;99.90;;;;;;5271810;28;20193;-74
2021/01/23 09:47:32;;;;;;;25.80;12.70;;;2.80;99.90;;;;;;5271724;28;20200;-73
2021/01/23 09:50:04;;;;;;;22.63;12.20;;;2.80;99.90;;;;;;5251747;28;20242;-73
2021/01/23 09:52:36;;;;;;;23.13;11.43;;;2.80;99.90;;;;;;5270450;28;20228;-75
2021/01/23 09:55:08;;;;;;;22.37;12.53;;;2.70;99.90;;;;;;5270476;28;20568;-73
2021/01/23 09:57:40;;;;;;;22.37;11.60;;;2.70;99.90;;;;;;5269680;28;20377;-76
2021/01/23 10:00:12;;;;;;;24.83;12.43;;;2.70;99.90;;;;;;5251635;28;20189;-75
2021/01/23 10:02:44;;;;;;;23.07;12.20;;;2.80;99.90;;;;;;5270380;28;20184;-74
2021/01/23 10:05:16;;;;;;;21.80;12.53;;;2.80;99.90;;;;;;5252747;28;20192;-76
2021/01/23 10:07:47;;;;;;;23.33;12.33;;;2.80;99.90;;;;;;5270897;28;20200;-75
2021/01/23 10:10:19;;;;;;;22.20;11.93;;;2.80;99.90;;;;;;5270173;28;20246;-77
2021/01/23 10:12:52;;;;;;;25.30;12.57;;;2.90;99.90;;;;;;5269414;28;20236;-76
2021/01/23 10:15:24;;;;;;;27.13;11.37;;;3.00;99.90;;;;;;5271646;28;20196;-75
2021/01/23 10:17:57;;;;;;;24.70;13.00;;;3.00;99.90;;;;;;5270606;28;20184;-77
2021/01/23 10:20:28;;;;;;;24.07;12.13;;;3.00;99.90;;;;;;5270355;28;20199;-72
2021/01/23 10:23:00;;;;;;;24.07;13.13;;;3.10;99.90;;;;;;5269891;28;20284;-74
2021/01/23 10:25:31;;;;;;;21.80;11.97;;;3.10;99.90;;;;;;5268906;28;20204;-73
2021/01/23 10:28:03;;;;;;;24.47;13.10;;;3.10;99.90;;;;;;5251828;28;20196;-73
2021/01/23 10:30:35;;;;;;;26.37;13.10;;;3.10;99.90;;;;;;5270103;28;20275;-76
2021/01/23 10:33:07;;;;;;;23.60;12.43;;;3.10;99.90;;;;;;5269312;28;20216;-74
2021/01/23 10:35:38;;;;;;;23.67;12.53;;;3.10;99.90;;;;;;5269760;28;20196;-75
2021/01/23 10:38:10;;;;;;;28.87;12.47;;;3.10;99.90;;;;;;5251527;28;20201;-72
2021/01/23 10:40:43;;;;;;;21.67;12.33;;;3.10;99.90;;;;;;5269031;28;20646;-75
2021/01/23 10:43:15;;;;;;;21.00;11.80;;;3.10;99.90;;;;;;5256051;28;20199;-77
2021/01/23 10:45:47;;;;;;;19.47;10.80;;;3.00;99.90;;;;;;5273363;28;20188;-77
2021/01/23 10:48:19;;;;;;;19.87;11.20;;;3.00;99.90;;;;;;5274014;28;20202;-73
2021/01/23 10:50:51;;;;;;;23.73;11.53;;;3.00;99.90;;;;;;5256003;28;20204;-74
2021/01/23 10:53:22;;;;;;;26.30;13.33;;;3.00;99.90;;;;;;5273731;28;20216;-77
2021/01/23 10:55:54;;;;;;;30.23;16.40;;;2.90;99.90;;;;;;5273274;28;20205;-75
2021/01/23 10:58:26;;;;;;;35.73;18.50;;;2.80;99.90;;;;;;5256800;28;20272;-77
2021/01/23 11:00:58;;;;;;;35.80;18.90;;;2.70;99.90;;;;;;5256699;28;20195;-74
2021/01/23 11:03:29;;;;;;;34.70;19.03;;;2.60;99.90;;;;;;5273746;28;20235;-75
2021/01/23 11:06:02;;;;;;;39.87;21.17;;;2.60;99.90;;;;;;5257260;28;20287;-75
2021/01/23 11:08:33;;;;;;;36.63;19.97;;;2.50;99.90;;;;;;5278437;28;20197;-74
2021/01/23 11:11:05;;;;;;;30.83;16.53;;;2.50;99.90;;;;;;5274494;28;20573;-75
2021/01/23 11:13:37;;;;;;;35.07;16.40;;;2.50;99.90;;;;;;5273672;28;20236;-77
2021/01/23 11:16:10;;;;;;;26.83;15.00;;;2.50;99.90;;;;;;5273269;28;20193;-75
2021/01/23 11:18:42;;;;;;;29.70;15.00;;;2.50;99.90;;;;;;5273667;28;20597;-74
2021/01/23 11:21:13;;;;;;;31.13;15.23;;;2.40;99.90;;;;;;5273361;28;20669;-74
2021/01/23 11:23:45;;;;;;;29.97;14.87;;;2.40;99.90;;;;;;5278937;28;20247;-77
2021/01/23 11:26:16;;;;;;;29.77;15.73;;;2.40;99.90;;;;;;5284059;28;20555;-77
2021/01/23 11:28:48;;;;;;;30.60;15.77;;;2.40;99.90;;;;;;5273553;28;20197;-76
2021/01/23 11:31:20;;;;;;;31.23;16.20;;;2.40;99.90;;;;;;5277723;28;20210;-74
2021/01/23 11:33:52;;;;;;;32.10;16.50;;;2.40;99.90;;;;;;5283718;28;20241;-77
2021/01/23 11:36:24;;;;;;;33.53;17.17;;;2.40;99.90;;;;;;5257078;28;20212;-74
2021/01/23 11:38:56;;;;;;;31.10;16.10;;;2.40;99.90;;;;;;5255752;28;20661;-75
2021/01/23 11:41:27;;;;;;;32.97;15.47;;;2.40;99.90;;;;;;5273578;28;20196;-73
2021/01/23 11:43:59;;;;;;;30.00;16.13;;;2.40;99.90;;;;;;5273144;28;20555;-75
2021/01/23 11:46:30;;;;;;;31.33;16.37;;;2.40;99.90;;;;;;5272650;28;20197;-73
2021/01/23 11:49:07;;;;;;;30.60;15.67;;;2.30;99.90;;;;;;5279731;28;20240;-75
2021/01/23 11:51:39;;;;;;;29.23;15.83;;;2.40;99.90;;;;;;5274929;28;20207;-71
2021/01/23 11:54:11;;;;;;;30.63;17.30;;;2.30;99.90;;;;;;5272699;28;20224;-73
2021/01/23 11:56:42;;;;;;;31.07;16.33;;;2.30;99.90;;;;;;5272540;28;20194;-82
2021/01/23 11:59:14;;;;;;;33.10;16.83;;;2.40;99.90;;;;;;5272352;28;20199;-75
2021/01/23 12:01:45;;;;;;;37.57;18.30;;;2.40;99.90;;;;;;5271608;28;20198;-71
2021/01/23 12:04:19;;;;;;;32.17;16.20;;;2.40;99.90;;;;;;5271894;28;20203;-69
2021/01/23 12:06:50;;;;;;;35.07;18.10;;;2.40;99.90;;;;;;5271641;28;20279;-74
2021/01/23 12:09:22;;;;;;;42.77;20.40;;;2.50;99.90;;;;;;5271583;28;20196;-73
2021/01/23 12:11:55;;;;;;;41.10;20.67;;;2.50;99.90;;;;;;5277510;28;20210;-77
2021/01/23 12:14:26;;;;;;;44.53;21.73;;;2.50;99.90;;;;;;5282155;28;20328;-75
2021/01/23 12:16:58;;;;;;;42.63;21.93;;;2.60;99.90;;;;;;5272779;28;20204;-72
2021/01/23 12:19:30;;;;;;;41.73;18.97;;;2.60;99.90;;;;;;5286186;28;20193;-76
2021/01/23 12:22:05;;;;;;;42.53;20.67;;;2.70;99.90;;;;;;5273214;28;20199;-77
2021/01/23 12:24:36;;;;;;;42.13;21.47;;;2.70;99.90;;;;;;5270852;28;20195;-76
2021/01/23 12:27:08;;;;;;;50.47;22.03;;;2.80;99.90;;;;;;5272812;28;20188;-77
2021/01/23 12:29:40;;;;;;;44.50;20.80;;;2.80;99.90;;;;;;5270930;28;20195;-75
2021/01/23 12:32:12;;;;;;;50.03;21.70;;;2.80;99.90;;;;;;5274178;28;20188;-78
2021/01/23 12:38:30;;;;;;;36.47;18.93;;;2.90;99.90;;;;;;5271756;28;20643;-76
2021/01/23 12:41:01;;;;;;;38.60;19.93;;;2.90;99.90;;;;;;5272492;28;20284;-79
2021/01/23 12:43:34;;;;;;;39.93;19.53;;;2.90;99.90;;;;;;5272820;28;20247;-77
2021/01/23 12:46:09;;;;;;;45.50;21.40;;;3.00;99.90;;;;;;5272423;28;20199;-79
2021/01/23 12:48:40;;;;;;;46.90;21.00;;;3.00;99.90;;;;;;5272359;28;20199;-78
2021/01/23 12:54:58;;;;;;;42.87;19.43;;;3.00;99.90;;;;;;5272892;28;20666;-80
2021/01/23 12:57:29;;;;;;;42.90;19.33;;;3.10;99.90;;;;;;5275093;28;20228;-75
2021/01/23 13:00:08;;;;;;;45.63;21.23;;;3.10;99.90;;;;;;5272753;28;20214;-79
2021/01/23 13:02:43;;;;;;;45.50;20.43;;;3.10;99.90;;;;;;5275439;28;20208;-80
2021/01/23 13:05:17;;;;;;;43.07;19.80;;;3.10;99.90;;;;;;5259394;28;20219;-78
2021/01/23 13:07:48;;;;;;;58.53;21.80;;;3.10;99.90;;;;;;5259581;28;20220;-67
2021/01/23 13:10:21;;;;;;;45.10;21.53;;;3.10;99.90;;;;;;5271341;28;20557;-70
2021/01/23 13:12:53;;;;;;;56.07;22.83;;;3.10;99.90;;;;;;5270883;28;20231;-69
2021/01/23 13:15:24;;;;;;;51.00;23.53;;;3.10;99.90;;;;;;5271052;28;20528;-74
2021/01/23 13:17:56;;;;;;;49.60;23.53;;;3.10;99.90;;;;;;5270864;28;20643;-72
2021/01/23 13:20:28;;;;;;;52.63;24.33;;;3.10;99.90;;;;;;5270684;28;20323;-70
2021/01/23 13:23:00;;;;;;;86.17;26.13;;;3.20;99.90;;;;;;5270412;28;20188;-70
2021/01/23 13:25:31;;;;;;;85.30;26.80;;;3.10;99.90;;;;;;5271093;28;20231;-74
2021/01/23 13:28:03;;;;;;;160.47;29.60;;;3.20;99.90;;;;;;5271503;28;20196;-74
2021/01/23 13:30:36;;;;;;;101.87;27.57;;;3.10;99.90;;;;;;5270432;28;20249;-77
2021/01/23 13:33:08;;;;;;;58.83;24.70;;;3.10;99.90;;;;;;5270820;28;20607;-76
2021/01/23 13:35:39;;;;;;;95.87;28.17;;;3.20;99.90;;;;;;5271512;28;20215;-73
2021/01/23 13:38:12;;;;;;;97.57;26.97;;;3.10;99.90;;;;;;5255129;28;20547;-75
2021/01/23 13:40:45;;;;;;;66.23;27.73;;;3.20;99.90;;;;;;5272606;28;20262;-74
2021/01/23 13:43:16;;;;;;;106.20;30.10;;;3.10;99.90;;;;;;5269201;28;20192;-77
2021/01/23 13:45:48;;;;;;;62.53;28.50;;;3.20;99.90;;;;;;5276384;28;20284;-73
2021/01/23 13:48:20;;;;;;;59.73;28.60;;;3.20;99.90;;;;;;5270385;28;20211;-72
2021/01/23 13:50:52;;;;;;;59.27;27.87;;;3.20;99.90;;;;;;5270467;28;20214;-72
2021/01/23 13:53:23;;;;;;;58.87;26.57;;;3.20;99.90;;;;;;5269672;28;20307;-73
2021/01/23 13:55:55;;;;;;;54.40;27.03;;;3.20;99.90;;;;;;5252385;28;20196;-75